Longview, WA (98632)

7:49 AM PDT on September 04, 2015 (GMT -0700)
Island Dr | | Change Station
CLOSE
Current Station
Personal Weather Station
Location: Longview, WA
Elevation: 10 ft
Nearby Weather Stations

Elev 10 ft 46.16 °N, 123.03 °W | Updated 11 seconds ago

Fog
Fog
47.3 °F
Feels Like 47 °F
N
0.0
Wind Variable Wind from WNW
Gusts 0.0 mph

Today
High -- | Low -- °F
--% Chance of Precip.
Yesterday
High -- | Low -- °F
Precip. -- in
6:36 AM 7:45 PM
Waning Gibbous, 59% visible
Pressure 29.99 in
Visibility 3.0 miles
Clouds Overcast 200 ft
Windchill 47 °F
Dew Point 46 °F
Humidity 95%
Rainfall 0.00 in
Snow Depth Not available.
UV 0.0 out of 12
Pollen 3.10 out of 12
Air Quality Not available.
Flu Activity Not available.
SPECI KSPB 041432Z AUTO 00000KT 3SM BR OVC002 09/08 A2999 RMK AO2 T00890083
Pressure 29.99 in
Visibility 3.0 miles
Clouds Overcast 200 ft
Windchill 47 °F
Dew Point 46 °F
Humidity 95%
Rainfall 0.00 in
Snow Depth Not available.
UV 0.0 out of 12
Pollen 3.10 out of 12
Air Quality Not available.
Flu Activity Not available.
SPECI KSPB 041432Z AUTO 00000KT 3SM BR OVC002 09/08 A2999 RMK AO2 T00890083

10-Day Weather Forecast

×

Almanac

Astronomy

Sep. 04, 2015 Rise Set
Actual Time
Civil Twilight
Nautical Twilight
Astronomical Twilight
Moon
Length of Visible Light
Length of Day
Tomorrow will be .
, % of the Moon is Illuminated

Today's Extremes

State Highs State Lows

Community

WunderPhotos

Upload Photos

1,852,187 photos uploaded!

WunderBlogs® & News

Nearby

Air Quality

  Air Quality AQ Index Pollutant
Not available.

Snow Depth

Station Depth Elevation

Earthquake Activity

City Distance Mag. Time & Date
Minimum magnitude displayed is 2.5.

Coastal Water Temperatures

Place Temperature

Stations

Nearby Weather Stations

Station Location Temp. Windchill Dew Point Humidity Wind Precip. Elev Updated Type